Terminal Aerodrome Forecast
Issued by NWS

Home | Current Version | Previous Version | Text Only | Print | Product List | Glossary On
Versions: 1 2 3 4 5 6 7 8 9 10 11 12 13 14
000
FTPA31 PHFO 301135
TAFHOG
TAF
PHOG 301135Z 3012/3112 05011KT P6SM FEW030 SCT050
     FM302000 05016G24KT P6SM FEW030 SCT050
     FM310500 05011KT P6SM SCT030 SCT050
      AMD LTD TO VIS AND WIND TIL 301600=

USA.gov is the U.S. government's official web portal to all federal, state and local government web resources and services.